sensor_id;sensor_type;location;lat;lon;timestamp;P1;durP1;ratioP1;P2;durP2;ratioP2
63959;SDS011;50136;51.374;0.096;2023-04-06T00:01:55;15.50;;;10.32;;
63959;SDS011;50136;51.374;0.096;2023-04-06T00:11:57;16.70;;;11.93;;
63959;SDS011;50136;51.374;0.096;2023-04-06T00:22:00;18.27;;;10.88;;
63959;SDS011;50136;51.374;0.096;2023-04-06T00:32:02;13.07;;;10.05;;
63959;SDS011;50136;51.374;0.096;2023-04-06T00:42:07;11.40;;;8.80;;
63959;SDS011;50136;51.374;0.096;2023-04-06T00:52:12;8.15;;;6.45;;
63959;SDS011;50136;51.374;0.096;2023-04-06T01:02:15;6.15;;;4.75;;
63959;SDS011;50136;51.374;0.096;2023-04-06T01:12:17;4.70;;;4.07;;
63959;SDS011;50136;51.374;0.096;2023-04-06T01:22:21;5.13;;;3.58;;
63959;SDS011;50136;51.374;0.096;2023-04-06T01:32:22;2.88;;;2.55;;
63959;SDS011;50136;51.374;0.096;2023-04-06T01:42:26;2.60;;;2.17;;
63959;SDS011;50136;51.374;0.096;2023-04-06T01:52:28;2.53;;;1.67;;
63959;SDS011;50136;51.374;0.096;2023-04-06T02:02:32;3.25;;;2.03;;
63959;SDS011;50136;51.374;0.096;2023-04-06T02:12:37;2.53;;;1.67;;
63959;SDS011;50136;51.374;0.096;2023-04-06T02:22:40;2.67;;;1.42;;
63959;SDS011;50136;51.374;0.096;2023-04-06T02:32:42;1.55;;;1.25;;
63959;SDS011;50136;51.374;0.096;2023-04-06T02:42:46;1.70;;;1.50;;
63959;SDS011;50136;51.374;0.096;2023-04-06T02:52:48;3.47;;;1.98;;
63959;SDS011;50136;51.374;0.096;2023-04-06T03:02:51;2.58;;;2.08;;
63959;SDS011;50136;51.374;0.096;2023-04-06T03:12:53;2.70;;;1.40;;
63959;SDS011;50136;51.374;0.096;2023-04-06T03:22:56;1.30;;;1.00;;
63959;SDS011;50136;51.374;0.096;2023-04-06T03:32:58;0.60;;;0.50;;
63959;SDS011;50136;51.374;0.096;2023-04-06T03:43:03;0.60;;;0.52;;
63959;SDS011;50136;51.374;0.096;2023-04-06T03:53:05;1.10;;;0.90;;
63959;SDS011;50136;51.374;0.096;2023-04-06T04:03:09;2.88;;;1.55;;
63959;SDS011;50136;51.374;0.096;2023-04-06T04:13:11;3.15;;;2.40;;
63959;SDS011;50136;51.374;0.096;2023-04-06T04:23:16;4.30;;;3.78;;
63959;SDS011;50136;51.374;0.096;2023-04-06T04:33:18;6.18;;;4.70;;
63959;SDS011;50136;51.374;0.096;2023-04-06T04:43:21;6.25;;;5.10;;
63959;SDS011;50136;51.374;0.096;2023-04-06T04:53:23;7.05;;;5.88;;
63959;SDS011;50136;51.374;0.096;2023-04-06T05:03:27;7.75;;;6.05;;
63959;SDS011;50136;51.374;0.096;2023-04-06T05:13:29;8.38;;;6.20;;
63959;SDS011;50136;51.374;0.096;2023-04-06T05:23:33;9.48;;;7.28;;
63959;SDS011;50136;51.374;0.096;2023-04-06T05:33:35;10.32;;;7.25;;
63959;SDS011;50136;51.374;0.096;2023-04-06T05:43:39;8.25;;;5.82;;
63959;SDS011;50136;51.374;0.096;2023-04-06T05:53:41;11.10;;;7.63;;
63959;SDS011;50136;51.374;0.096;2023-04-06T06:03:45;8.65;;;6.65;;
63959;SDS011;50136;51.374;0.096;2023-04-06T06:13:47;16.88;;;6.88;;
63959;SDS011;50136;51.374;0.096;2023-04-06T06:23:50;10.32;;;6.75;;
63959;SDS011;50136;51.374;0.096;2023-04-06T06:33:52;17.33;;;7.03;;
63959;SDS011;50136;51.374;0.096;2023-04-06T06:43:55;7.97;;;5.35;;
63959;SDS011;50136;51.374;0.096;2023-04-06T06:53:57;44.15;;;7.45;;
63959;SDS011;50136;51.374;0.096;2023-04-06T07:04:01;5.60;;;4.18;;
63959;SDS011;50136;51.374;0.096;2023-04-06T07:14:03;6.28;;;4.88;;
63959;SDS011;50136;51.374;0.096;2023-04-06T07:24:06;7.68;;;4.30;;
63959;SDS011;50136;51.374;0.096;2023-04-06T07:34:09;4.43;;;4.03;;
63959;SDS011;50136;51.374;0.096;2023-04-06T07:44:13;6.13;;;3.90;;
63959;SDS011;50136;51.374;0.096;2023-04-06T07:54:15;2.67;;;2.45;;
63959;SDS011;50136;51.374;0.096;2023-04-06T08:04:18;2.78;;;2.30;;
63959;SDS011;50136;51.374;0.096;2023-04-06T08:14:21;3.55;;;2.33;;
63959;SDS011;50136;51.374;0.096;2023-04-06T08:24:24;6.18;;;2.55;;
63959;SDS011;50136;51.374;0.096;2023-04-06T08:34:26;13.23;;;4.78;;
63959;SDS011;50136;51.374;0.096;2023-04-06T08:44:30;3.88;;;1.40;;
63959;SDS011;50136;51.374;0.096;2023-04-06T08:54:33;8.70;;;2.00;;
63959;SDS011;50136;51.374;0.096;2023-04-06T09:04:37;6.45;;;2.92;;
63959;SDS011;50136;51.374;0.096;2023-04-06T09:14:39;8.75;;;2.25;;
63959;SDS011;50136;51.374;0.096;2023-04-06T09:24:43;5.18;;;2.03;;
63959;SDS011;50136;51.374;0.096;2023-04-06T09:34:51;8.40;;;1.80;;
63959;SDS011;50136;51.374;0.096;2023-04-06T09:45:08;7.40;;;2.07;;
63959;SDS011;50136;51.374;0.096;2023-04-06T09:55:10;14.00;;;2.53;;
63959;SDS011;50136;51.374;0.096;2023-04-06T10:05:22;9.40;;;2.85;;
63959;SDS011;50136;51.374;0.096;2023-04-06T10:15:29;8.90;;;2.47;;
63959;SDS011;50136;51.374;0.096;2023-04-06T10:25:33;14.18;;;4.68;;
63959;SDS011;50136;51.374;0.096;2023-04-06T10:35:36;7.60;;;1.95;;
63959;SDS011;50136;51.374;0.096;2023-04-06T10:45:40;8.43;;;2.50;;
63959;SDS011;50136;51.374;0.096;2023-04-06T10:55:42;6.75;;;2.35;;
63959;SDS011;50136;51.374;0.096;2023-04-06T11:05:48;5.75;;;2.38;;
63959;SDS011;50136;51.374;0.096;2023-04-06T11:26:55;9.65;;;2.08;;
63959;SDS011;50136;51.374;0.096;2023-04-06T11:36:59;4.03;;;1.80;;
63959;SDS011;50136;51.374;0.096;2023-04-06T11:47:04;4.78;;;2.00;;
63959;SDS011;50136;51.374;0.096;2023-04-06T11:57:07;7.95;;;1.90;;
63959;SDS011;50136;51.374;0.096;2023-04-06T12:07:11;5.05;;;1.77;;
63959;SDS011;50136;51.374;0.096;2023-04-06T12:17:13;4.40;;;2.00;;
63959;SDS011;50136;51.374;0.096;2023-04-06T12:27:16;4.72;;;1.80;;
63959;SDS011;50136;51.374;0.096;2023-04-06T12:37:18;7.10;;;2.50;;
63959;SDS011;50136;51.374;0.096;2023-04-06T12:47:23;6.40;;;1.50;;
63959;SDS011;50136;51.374;0.096;2023-04-06T12:57:26;5.20;;;1.10;;
63959;SDS011;50136;51.374;0.096;2023-04-06T13:07:30;6.72;;;1.20;;
63959;SDS011;50136;51.374;0.096;2023-04-06T13:17:33;3.65;;;1.02;;
63959;SDS011;50136;51.374;0.096;2023-04-06T13:27:36;2.35;;;1.10;;
63959;SDS011;50136;51.374;0.096;2023-04-06T13:37:38;5.65;;;1.00;;
63959;SDS011;50136;51.374;0.096;2023-04-06T13:47:42;2.72;;;1.10;;
63959;SDS011;50136;51.374;0.096;2023-04-06T13:57:44;3.22;;;1.15;;
63959;SDS011;50136;51.374;0.096;2023-04-06T14:07:47;7.30;;;2.40;;
63959;SDS011;50136;51.374;0.096;2023-04-06T14:17:49;2.17;;;1.20;;
63959;SDS011;50136;51.374;0.096;2023-04-06T14:27:52;1.92;;;0.80;;
63959;SDS011;50136;51.374;0.096;2023-04-06T14:37:55;4.15;;;1.33;;
63959;SDS011;50136;51.374;0.096;2023-04-06T14:47:58;6.20;;;1.33;;
63959;SDS011;50136;51.374;0.096;2023-04-06T14:58:00;8.13;;;1.80;;
63959;SDS011;50136;51.374;0.096;2023-04-06T15:08:04;2.95;;;1.13;;
63959;SDS011;50136;51.374;0.096;2023-04-06T15:18:06;3.75;;;1.00;;
63959;SDS011;50136;51.374;0.096;2023-04-06T15:28:10;4.30;;;1.25;;
63959;SDS011;50136;51.374;0.096;2023-04-06T15:38:12;8.02;;;1.27;;
63959;SDS011;50136;51.374;0.096;2023-04-06T15:48:15;2.45;;;1.30;;
63959;SDS011;50136;51.374;0.096;2023-04-06T15:58:17;6.55;;;1.55;;
63959;SDS011;50136;51.374;0.096;2023-04-06T16:08:21;3.20;;;1.55;;
63959;SDS011;50136;51.374;0.096;2023-04-06T16:18:23;2.40;;;1.35;;
63959;SDS011;50136;51.374;0.096;2023-04-06T16:28:26;6.00;;;1.83;;
63959;SDS011;50136;51.374;0.096;2023-04-06T16:38:28;4.35;;;1.30;;
63959;SDS011;50136;51.374;0.096;2023-04-06T16:48:32;4.38;;;1.33;;
63959;SDS011;50136;51.374;0.096;2023-04-06T16:58:34;4.32;;;1.50;;
63959;SDS011;50136;51.374;0.096;2023-04-06T17:08:37;4.28;;;1.33;;
63959;SDS011;50136;51.374;0.096;2023-04-06T17:18:39;3.70;;;1.48;;
63959;SDS011;50136;51.374;0.096;2023-04-06T17:28:43;2.55;;;1.05;;
63959;SDS011;50136;51.374;0.096;2023-04-06T17:38:45;5.22;;;2.08;;
63959;SDS011;50136;51.374;0.096;2023-04-06T17:48:48;4.43;;;1.42;;
63959;SDS011;50136;51.374;0.096;2023-04-06T17:58:53;6.47;;;2.80;;
63959;SDS011;50136;51.374;0.096;2023-04-06T18:08:57;7.53;;;2.75;;
63959;SDS011;50136;51.374;0.096;2023-04-06T18:18:59;4.25;;;1.80;;
63959;SDS011;50136;51.374;0.096;2023-04-06T18:29:03;3.92;;;1.92;;
63959;SDS011;50136;51.374;0.096;2023-04-06T18:39:05;8.25;;;2.05;;
63959;SDS011;50136;51.374;0.096;2023-04-06T18:49:08;6.50;;;2.45;;
63959;SDS011;50136;51.374;0.096;2023-04-06T18:59:11;4.18;;;1.83;;
63959;SDS011;50136;51.374;0.096;2023-04-06T19:09:15;9.82;;;2.63;;
63959;SDS011;50136;51.374;0.096;2023-04-06T19:19:20;4.63;;;2.75;;
63959;SDS011;50136;51.374;0.096;2023-04-06T19:29:25;5.97;;;2.70;;
63959;SDS011;50136;51.374;0.096;2023-04-06T19:39:28;3.55;;;2.10;;
63959;SDS011;50136;51.374;0.096;2023-04-06T19:49:32;5.45;;;2.40;;
63959;SDS011;50136;51.374;0.096;2023-04-06T19:59:34;6.00;;;2.30;;
63959;SDS011;50136;51.374;0.096;2023-04-06T20:09:37;4.60;;;2.53;;
63959;SDS011;50136;51.374;0.096;2023-04-06T20:19:39;6.38;;;2.10;;
63959;SDS011;50136;51.374;0.096;2023-04-06T20:29:43;8.32;;;2.97;;
63959;SDS011;50136;51.374;0.096;2023-04-06T20:50:32;6.18;;;2.83;;
63959;SDS011;50136;51.374;0.096;2023-04-06T21:00:37;7.88;;;2.67;;
63959;SDS011;50136;51.374;0.096;2023-04-06T21:10:40;8.57;;;3.05;;
63959;SDS011;50136;51.374;0.096;2023-04-06T21:20:42;7.40;;;2.83;;
63959;SDS011;50136;51.374;0.096;2023-04-06T21:30:46;4.78;;;2.55;;
63959;SDS011;50136;51.374;0.096;2023-04-06T21:40:52;6.13;;;3.00;;
63959;SDS011;50136;51.374;0.096;2023-04-06T21:50:56;9.23;;;3.00;;
63959;SDS011;50136;51.374;0.096;2023-04-06T22:00:58;9.43;;;3.90;;
63959;SDS011;50136;51.374;0.096;2023-04-06T22:11:05;7.47;;;3.28;;
63959;SDS011;50136;51.374;0.096;2023-04-06T22:21:07;5.35;;;3.10;;
63959;SDS011;50136;51.374;0.096;2023-04-06T22:31:11;7.22;;;2.60;;
63959;SDS011;50136;51.374;0.096;2023-04-06T22:41:13;8.93;;;3.30;;
63959;SDS011;50136;51.374;0.096;2023-04-06T22:51:16;9.00;;;3.10;;
63959;SDS011;50136;51.374;0.096;2023-04-06T23:01:18;8.68;;;3.13;;
63959;SDS011;50136;51.374;0.096;2023-04-06T23:11:22;4.97;;;2.67;;
63959;SDS011;50136;51.374;0.096;2023-04-06T23:21:24;11.82;;;3.28;;
63959;SDS011;50136;51.374;0.096;2023-04-06T23:31:30;12.48;;;3.13;;
63959;SDS011;50136;51.374;0.096;2023-04-06T23:41:32;5.18;;;2.92;;
63959;SDS011;50136;51.374;0.096;2023-04-06T23:51:35;9.35;;;2.40;;
